createdAt,value
2018-11-23T00:00:22.759Z,31.40
2018-11-23T00:02:51.561Z,34.00
2018-11-23T00:05:19.719Z,30.53
2018-11-23T00:07:48.081Z,31.20
2018-11-23T00:10:19.780Z,36.10
2018-11-23T00:12:47.980Z,33.63
2018-11-23T00:15:17.107Z,31.23
2018-11-23T00:17:45.071Z,33.63
2018-11-23T00:20:14.473Z,28.37
2018-11-23T00:22:42.499Z,34.33
2018-11-23T00:25:12.795Z,32.53
2018-11-23T00:27:41.063Z,34.23
2018-11-23T00:30:13.529Z,36.27
2018-11-23T00:32:41.592Z,35.43
2018-11-23T00:35:11.506Z,31.23
2018-11-23T00:37:39.902Z,35.80
2018-11-23T00:40:10.012Z,34.60
2018-11-23T00:42:38.043Z,34.37
2018-11-23T00:45:07.625Z,35.20
2018-11-23T00:47:36.033Z,32.37
2018-11-23T00:50:04.113Z,33.97
2018-11-23T00:52:32.095Z,33.33
2018-11-23T00:55:00.048Z,36.03
2018-11-23T00:57:27.926Z,37.33
2018-11-23T00:59:56.499Z,37.90
2018-11-23T01:02:24.436Z,35.83
2018-11-23T01:04:52.718Z,35.27
2018-11-23T01:07:20.656Z,30.37
2018-11-23T01:09:48.618Z,34.97
2018-11-23T01:12:16.906Z,36.50
2018-11-23T01:14:45.164Z,36.03
2018-11-23T01:17:13.393Z,35.43
2018-11-23T01:19:41.350Z,36.00
2018-11-23T01:22:09.314Z,34.30
2018-11-23T01:24:37.603Z,34.40
2018-11-23T01:27:05.831Z,36.50
2018-11-23T01:29:33.763Z,34.23
2018-11-23T01:32:01.985Z,36.90
2018-11-23T01:34:29.983Z,37.33
2018-11-23T01:36:58.463Z,34.03
2018-11-23T01:39:26.407Z,33.97
2018-11-23T01:41:54.733Z,34.83
2018-11-23T01:44:22.652Z,35.63
2018-11-23T01:46:50.587Z,37.97
2018-11-23T01:49:18.991Z,35.40
2018-11-23T01:51:46.963Z,31.83
2018-11-23T01:54:15.232Z,34.43
2018-11-23T01:56:43.143Z,39.00
2018-11-23T01:59:11.072Z,38.10
2018-11-23T02:01:38.986Z,35.77
2018-11-23T02:04:06.888Z,38.23
2018-11-23T02:06:34.794Z,36.07
2018-11-23T02:09:02.875Z,33.70
2018-11-23T02:11:30.820Z,34.97
2018-11-23T02:13:59.048Z,37.03
2018-11-23T02:16:27.956Z,33.77
2018-11-23T02:18:56.130Z,38.73
2018-11-23T02:21:24.392Z,39.30
2018-11-23T02:23:53.044Z,38.63
2018-11-23T02:26:21.282Z,37.80
2018-11-23T02:28:49.406Z,34.60
2018-11-23T02:31:17.315Z,33.37
2018-11-23T02:33:45.564Z,33.27
2018-11-23T02:36:13.465Z,32.23
2018-11-23T02:38:41.409Z,37.70
2018-11-23T02:41:09.649Z,36.47
2018-11-23T02:43:37.560Z,33.80
2018-11-23T02:46:05.825Z,38.53
2018-11-23T02:48:33.734Z,35.63
2018-11-23T02:51:01.617Z,38.63
2018-11-23T02:53:30.267Z,34.83
2018-11-23T02:55:58.174Z,34.80
2018-11-23T02:58:26.073Z,37.10
2018-11-23T03:00:54.298Z,36.50
2018-11-23T03:03:22.482Z,40.33
2018-11-23T03:05:50.661Z,36.40
2018-11-23T03:08:19.172Z,38.90
2018-11-23T03:10:47.386Z,38.60
2018-11-23T03:13:15.272Z,39.27
2018-11-23T03:15:43.882Z,42.90
2018-11-23T03:18:11.809Z,42.93
2018-11-23T03:20:39.694Z,42.33
2018-11-23T03:23:07.604Z,42.03
2018-11-23T03:25:36.171Z,45.17
2018-11-23T03:28:04.083Z,45.43
2018-11-23T03:30:32.325Z,40.43
2018-11-23T03:33:00.741Z,41.97
2018-11-23T03:35:28.656Z,41.13
2018-11-23T03:37:56.585Z,41.73
2018-11-23T03:40:24.844Z,40.37
2018-11-23T03:42:52.743Z,38.23
2018-11-23T03:45:20.946Z,40.03
2018-11-23T03:47:48.876Z,42.93
2018-11-23T03:50:17.498Z,40.90
2018-11-23T03:52:45.648Z,39.20
2018-11-23T03:55:13.580Z,42.77
2018-11-23T03:57:41.497Z,44.67
2018-11-23T04:00:17.884Z,38.53
2018-11-23T04:02:45.804Z,37.97
2018-11-23T04:05:14.026Z,39.23
2018-11-23T04:07:41.969Z,37.17
2018-11-23T04:10:11.348Z,40.40
2018-11-23T04:12:39.568Z,40.77
2018-11-23T04:15:08.322Z,39.00
2018-11-23T04:17:36.635Z,38.70
2018-11-23T04:20:05.763Z,32.20
2018-11-23T04:22:34.003Z,38.93
2018-11-23T04:25:02.254Z,32.53
2018-11-23T04:27:30.183Z,34.60
2018-11-23T04:29:58.109Z,38.17
2018-11-23T04:32:26.050Z,37.70
2018-11-23T04:34:53.969Z,30.90
2018-11-23T04:37:21.877Z,36.17
2018-11-23T04:39:50.174Z,32.70
2018-11-23T04:42:18.100Z,36.77
2018-11-23T04:44:46.038Z,30.87
2018-11-23T04:47:14.304Z,35.27
2018-11-23T04:49:42.231Z,29.00
2018-11-23T04:52:10.155Z,32.67
2018-11-23T04:54:38.396Z,32.57
2018-11-23T04:57:06.326Z,34.87
2018-11-23T04:59:34.249Z,35.50
2018-11-23T05:02:02.175Z,29.90
2018-11-23T05:04:30.111Z,34.40
2018-11-23T05:06:58.014Z,33.20
2018-11-23T05:09:26.248Z,34.60
2018-11-23T05:11:54.175Z,32.50
2018-11-23T05:14:22.484Z,33.87
2018-11-23T05:16:50.717Z,32.70
2018-11-23T05:19:18.616Z,34.37
2018-11-23T05:21:46.743Z,33.73
2018-11-23T05:24:14.650Z,37.57
2018-11-23T05:26:42.955Z,32.90
2018-11-23T05:29:10.865Z,34.57
2018-11-23T05:31:38.792Z,33.13
2018-11-23T05:34:07.039Z,39.10
2018-11-23T05:36:35.570Z,33.00
2018-11-23T05:39:04.810Z,36.70
2018-11-23T05:41:33.077Z,32.23
2018-11-23T05:44:01.012Z,38.43
2018-11-23T05:46:29.282Z,33.33
2018-11-23T05:48:57.282Z,36.67
2018-11-23T05:51:25.206Z,37.70
2018-11-23T05:53:53.099Z,37.20
2018-11-23T05:56:21.692Z,37.70
2018-11-23T05:58:49.715Z,36.30
2018-11-23T06:01:17.631Z,36.97
2018-11-23T06:03:45.527Z,35.57
2018-11-23T06:06:13.482Z,39.07
2018-11-23T06:08:41.434Z,34.47
2018-11-23T06:11:09.674Z,37.40
2018-11-23T06:13:37.637Z,38.23
2018-11-23T06:16:05.665Z,38.00
2018-11-23T06:18:33.891Z,37.27
2018-11-23T06:21:01.793Z,37.20
2018-11-23T06:23:30.210Z,37.57
2018-11-23T06:26:01.747Z,39.20
2018-11-23T06:28:29.693Z,37.60
2018-11-23T06:30:57.971Z,32.60
2018-11-23T06:33:31.531Z,34.77
2018-11-23T06:35:59.455Z,36.03
2018-11-23T06:38:27.733Z,37.07
2018-11-23T06:40:55.666Z,35.07
2018-11-23T06:43:23.671Z,36.13
2018-11-23T06:45:51.606Z,39.00
2018-11-23T06:48:19.547Z,34.53
2018-11-23T06:50:47.874Z,32.70
2018-11-23T06:53:16.074Z,41.50
2018-11-23T06:55:44.020Z,33.93
2018-11-23T06:58:11.991Z,39.80
2018-11-23T07:00:39.927Z,39.30
2018-11-23T07:03:07.876Z,39.67
2018-11-23T07:05:36.644Z,36.43
2018-11-23T07:08:04.930Z,36.57
2018-11-23T07:10:32.830Z,39.67
2018-11-23T07:13:01.064Z,36.07
2018-11-23T07:15:29.009Z,36.40
2018-11-23T07:17:57.127Z,41.33
2018-11-23T07:20:25.046Z,37.43
2018-11-23T07:22:52.962Z,37.67
2018-11-23T07:25:20.872Z,41.67
2018-11-23T07:27:48.807Z,39.77
2018-11-23T07:30:19.081Z,36.30
2018-11-23T07:32:47.386Z,37.00
2018-11-23T07:35:15.853Z,36.40
2018-11-23T07:37:43.836Z,38.13
2018-11-23T07:40:49.659Z,33.10
2018-11-23T07:43:17.619Z,37.83
2018-11-23T07:45:46.186Z,36.07
2018-11-23T07:48:14.109Z,34.13
2018-11-23T07:50:42.035Z,31.97
2018-11-23T07:53:09.956Z,33.10
2018-11-23T07:55:38.678Z,31.60
2018-11-23T07:58:07.942Z,32.07
2018-11-23T08:00:36.231Z,32.20
2018-11-23T08:03:04.443Z,36.50
2018-11-23T08:05:32.662Z,33.33
2018-11-23T08:08:00.602Z,34.40
2018-11-23T08:10:27.780Z,34.93
2018-11-23T08:12:55.716Z,34.77
2018-11-23T08:15:25.350Z,35.93
2018-11-23T08:17:53.355Z,31.27
2018-11-23T08:20:22.503Z,32.97
2018-11-23T08:23:50.500Z,29.77
2018-11-23T08:26:18.496Z,31.40
2018-11-23T08:28:46.389Z,29.17
2018-11-23T08:31:14.276Z,29.47
2018-11-23T08:33:42.226Z,33.13
2018-11-23T08:36:10.135Z,28.70
2018-11-23T08:38:38.067Z,31.57
2018-11-23T08:41:05.960Z,33.50
2018-11-23T08:43:33.858Z,30.23
2018-11-23T08:46:01.758Z,29.40
2018-11-23T08:48:29.677Z,31.37
2018-11-23T08:50:57.586Z,32.03
2018-11-23T08:53:32.329Z,29.23
2018-11-23T08:56:00.296Z,29.57
2018-11-23T08:58:28.188Z,30.27
2018-11-23T09:00:56.145Z,30.77
2018-11-23T09:03:24.028Z,31.43
2018-11-23T09:05:51.981Z,29.93
2018-11-23T09:08:19.905Z,28.80
2018-11-23T09:10:47.870Z,29.73
2018-11-23T09:13:15.781Z,32.63
2018-11-23T09:15:43.684Z,27.83
2018-11-23T09:18:11.668Z,29.37
2018-11-23T09:20:39.596Z,33.00
2018-11-23T09:23:07.460Z,29.73
2018-11-23T09:25:35.352Z,28.87
2018-11-23T09:28:03.276Z,28.43
2018-11-23T09:30:31.181Z,30.00
2018-11-23T09:32:59.115Z,32.80
2018-11-23T09:35:27.752Z,32.67
2018-11-23T09:37:55.648Z,34.23
2018-11-23T09:40:25.219Z,31.47
2018-11-23T09:42:53.396Z,30.57
2018-11-23T09:45:22.696Z,29.67
2018-11-23T09:47:52.023Z,27.33
2018-11-23T09:50:21.131Z,32.97
2018-11-23T09:52:50.310Z,31.20
2018-11-23T09:55:18.773Z,28.43
2018-11-23T09:57:46.739Z,27.73
2018-11-23T10:00:16.825Z,31.37
2018-11-23T10:02:45.607Z,32.50
2018-11-23T10:05:14.448Z,30.33
2018-11-23T10:07:43.831Z,28.00
2018-11-23T10:10:12.537Z,32.30
2018-11-23T10:12:40.612Z,29.40
2018-11-23T10:15:09.509Z,31.30
2018-11-23T10:17:37.407Z,31.30
2018-11-23T10:20:09.432Z,27.27
2018-11-23T10:22:37.341Z,29.93
2018-11-23T10:25:06.564Z,32.83
2018-11-23T10:27:34.478Z,28.47
2018-11-23T10:30:02.556Z,28.90
2018-11-23T10:32:30.457Z,30.00
2018-11-23T10:34:58.379Z,27.63
2018-11-23T10:37:26.325Z,31.03
2018-11-23T10:39:54.244Z,30.80
2018-11-23T10:42:22.236Z,30.90
2018-11-23T10:44:50.100Z,26.27
2018-11-23T10:47:18.026Z,29.17
2018-11-23T10:49:45.924Z,27.57
2018-11-23T10:52:13.872Z,28.47
2018-11-23T10:54:41.784Z,27.93
2018-11-23T10:57:09.721Z,31.70
2018-11-23T10:59:37.647Z,30.80
2018-11-23T11:03:11.388Z,31.43
2018-11-23T11:05:57.148Z,29.90
2018-11-23T11:08:25.088Z,30.87
2018-11-23T11:10:53.072Z,28.53
2018-11-23T11:13:20.984Z,29.20
2018-11-23T11:15:48.913Z,27.13
2018-11-23T11:18:16.823Z,30.33
2018-11-23T11:20:44.756Z,28.37
2018-11-23T11:23:12.692Z,28.27
2018-11-23T11:25:40.628Z,26.17
2018-11-23T11:28:08.562Z,26.50
2018-11-23T11:30:36.469Z,29.33
2018-11-23T11:33:04.404Z,29.80
2018-11-23T11:35:32.367Z,30.80
2018-11-23T11:38:00.311Z,29.30
2018-11-23T11:40:28.233Z,27.63
2018-11-23T11:42:56.142Z,29.07
2018-11-23T11:45:24.081Z,32.90
2018-11-23T11:47:51.989Z,27.80
2018-11-23T11:50:19.941Z,29.70
2018-11-23T11:52:48.508Z,27.87
2018-11-23T11:55:17.635Z,27.50
2018-11-23T11:57:46.206Z,28.63
2018-11-23T12:00:17.470Z,30.20
2018-11-23T12:02:45.501Z,27.80
2018-11-23T12:05:13.926Z,26.50
2018-11-23T12:07:41.964Z,25.63
2018-11-23T12:10:13.404Z,29.67
2018-11-23T12:12:41.912Z,25.43
2018-11-23T12:15:10.878Z,25.33
2018-11-23T12:17:38.968Z,26.83
2018-11-23T12:20:08.952Z,25.57
2018-11-23T12:22:36.901Z,28.57
2018-11-23T12:25:05.222Z,31.40
2018-11-23T12:27:33.130Z,23.40
2018-11-23T12:30:01.041Z,28.80
2018-11-23T12:32:28.961Z,26.77
2018-11-23T12:34:56.864Z,26.90
2018-11-23T12:37:25.065Z,26.20
2018-11-23T12:39:52.928Z,26.77
2018-11-23T12:42:20.826Z,23.50
2018-11-23T12:44:48.757Z,23.77
2018-11-23T12:47:16.662Z,25.27
2018-11-23T12:49:44.556Z,24.93
2018-11-23T12:52:12.492Z,23.00
2018-11-23T12:54:40.492Z,27.43
2018-11-23T12:57:08.424Z,25.97
2018-11-23T12:59:36.435Z,25.60
2018-11-23T13:02:04.348Z,25.40
2018-11-23T13:04:32.268Z,25.33
2018-11-23T13:07:00.191Z,24.97
2018-11-23T13:09:28.100Z,24.43
2018-11-23T13:11:56.025Z,23.67
2018-11-23T13:14:23.941Z,22.97
2018-11-23T13:16:51.866Z,23.27
2018-11-23T13:19:19.776Z,25.67
2018-11-23T13:21:47.713Z,24.70
2018-11-23T13:24:15.624Z,25.23
2018-11-23T13:26:43.545Z,23.87
2018-11-23T13:29:16.272Z,25.63
2018-11-23T13:31:39.528Z,25.77
2018-11-23T13:34:07.424Z,21.93
2018-11-23T13:36:35.392Z,23.83
2018-11-23T13:39:03.332Z,25.00
2018-11-23T13:41:31.266Z,25.67
2018-11-23T13:43:59.162Z,25.47
2018-11-23T13:46:27.081Z,25.97
2018-11-23T13:48:55.022Z,25.87
2018-11-23T13:51:22.921Z,23.80
2018-11-23T13:53:50.916Z,24.20
2018-11-23T13:56:18.812Z,22.40
2018-11-23T13:58:46.789Z,25.57
2018-11-23T14:01:14.704Z,24.40
2018-11-23T14:03:42.677Z,24.37
2018-11-23T14:06:10.608Z,26.67
2018-11-23T14:08:38.524Z,23.77
2018-11-23T14:11:06.475Z,22.53
2018-11-23T14:13:34.416Z,26.77
2018-11-23T14:16:02.313Z,24.73
2018-11-23T14:18:30.272Z,25.00
2018-11-23T14:20:58.248Z,25.63
2018-11-23T14:23:26.150Z,27.07
2018-11-23T14:25:54.883Z,27.60
2018-11-23T14:28:22.073Z,24.33
2018-11-23T14:30:50.030Z,27.17
2018-11-23T14:33:17.958Z,22.23
2018-11-23T14:35:45.860Z,29.23
2018-11-23T14:38:13.809Z,28.80
2018-11-23T14:40:41.711Z,24.07
2018-11-23T14:43:09.617Z,26.37
2018-11-23T14:45:37.528Z,27.83
2018-11-23T14:48:08.266Z,25.60
2018-11-23T14:50:40.424Z,26.47
2018-11-23T14:53:08.369Z,26.37
2018-11-23T14:55:36.324Z,25.33
2018-11-23T14:58:04.250Z,27.27
2018-11-23T15:00:34.586Z,23.60
2018-11-23T15:03:03.376Z,24.50
2018-11-23T15:05:31.276Z,25.10
2018-11-23T15:07:59.193Z,27.27
2018-11-23T15:10:28.504Z,29.57
2018-11-23T15:12:57.804Z,29.40
2018-11-23T15:15:27.169Z,23.60
2018-11-23T15:17:55.796Z,24.93
2018-11-23T15:20:27.428Z,25.27
2018-11-23T15:22:57.109Z,30.33
2018-11-23T15:25:25.013Z,30.43
2018-11-23T15:27:53.156Z,27.17
2018-11-23T15:30:23.693Z,24.90
2018-11-23T15:32:51.612Z,26.37
2018-11-23T15:35:19.502Z,29.37
2018-11-23T15:37:47.408Z,29.90
2018-11-23T15:40:17.961Z,25.27
2018-11-23T15:42:46.442Z,29.53
2018-11-23T15:45:15.915Z,24.93
2018-11-23T15:47:43.832Z,31.40
2018-11-23T15:50:18.085Z,25.13
2018-11-23T15:52:46.601Z,27.43
2018-11-23T15:55:17.273Z,25.33
2018-11-23T15:57:46.013Z,24.37
2018-11-23T16:00:16.357Z,24.37
2018-11-23T16:02:45.247Z,29.70
2018-11-23T16:05:13.679Z,28.20
2018-11-23T16:07:41.778Z,27.20
2018-11-23T16:10:15.718Z,22.93
2018-11-23T16:12:44.270Z,27.27
2018-11-23T16:15:12.185Z,25.80
2018-11-23T16:17:40.148Z,37.87
2018-11-23T16:20:13.644Z,39.60
2018-11-23T16:22:41.719Z,34.57
2018-11-23T16:25:10.740Z,26.87
2018-11-23T16:27:39.257Z,25.70
2018-11-23T16:30:14.284Z,27.67
2018-11-23T16:32:42.532Z,26.40
2018-11-23T16:35:10.467Z,24.13
2018-11-23T16:37:38.360Z,26.20
2018-11-23T16:40:08.348Z,21.53
2018-11-23T16:42:36.652Z,20.77
2018-11-23T16:45:06.340Z,24.37
2018-11-23T16:47:34.500Z,25.47
2018-11-23T16:50:02.437Z,24.17
2018-11-23T16:52:30.398Z,24.87
2018-11-23T16:54:58.305Z,25.70
2018-11-23T16:57:26.680Z,24.10
2018-11-23T16:59:54.605Z,25.67
2018-11-23T17:02:22.491Z,24.63
2018-11-23T17:04:50.581Z,23.37
2018-11-23T17:07:18.489Z,23.07
2018-11-23T17:09:46.437Z,22.40
2018-11-23T17:12:14.355Z,25.17
2018-11-23T17:14:42.261Z,25.53
2018-11-23T17:17:10.180Z,28.00
2018-11-23T17:19:39.304Z,23.03
2018-11-23T17:22:07.546Z,25.37
2018-11-23T17:24:35.509Z,23.07
2018-11-23T17:27:03.447Z,24.27
2018-11-23T17:29:31.375Z,22.83
2018-11-23T17:31:59.268Z,25.90
2018-11-23T17:34:27.207Z,23.93
2018-11-23T17:36:55.140Z,23.70
2018-11-23T17:39:23.058Z,22.83
2018-11-23T17:41:50.948Z,23.40
2018-11-23T17:44:18.876Z,24.00
2018-11-23T17:46:46.772Z,24.83
2018-11-23T17:49:14.702Z,25.37
2018-11-23T17:51:42.657Z,23.70
2018-11-23T17:54:10.588Z,23.97
2018-11-23T17:56:38.489Z,21.90
2018-11-23T17:59:06.422Z,23.73
2018-11-23T18:01:34.353Z,20.53
2018-11-23T18:04:02.286Z,22.10
2018-11-23T18:06:30.181Z,21.17
2018-11-23T18:08:58.541Z,22.90
2018-11-23T18:11:26.443Z,23.27
2018-11-23T18:13:54.372Z,21.67
2018-11-23T18:16:22.321Z,23.67
2018-11-23T18:18:50.256Z,23.20
2018-11-23T18:21:18.152Z,23.77
2018-11-23T18:23:46.073Z,23.43
2018-11-23T18:26:13.982Z,19.20
2018-11-23T18:28:41.915Z,21.03
2018-11-23T18:31:09.829Z,21.50
2018-11-23T18:33:37.786Z,23.23
2018-11-23T18:36:05.701Z,21.33
2018-11-23T18:38:33.663Z,23.83
2018-11-23T18:41:01.644Z,25.67
2018-11-23T18:43:29.534Z,26.47
2018-11-23T18:45:57.497Z,26.73
2018-11-23T18:48:25.462Z,22.60
2018-11-23T18:50:53.409Z,26.13
2018-11-23T18:53:21.321Z,24.10
2018-11-23T18:55:49.248Z,23.93
2018-11-23T18:58:17.316Z,24.83
2018-11-23T19:00:45.244Z,26.37
2018-11-23T19:03:13.452Z,23.33
2018-11-23T19:05:41.356Z,24.53
2018-11-23T19:08:09.285Z,25.23
2018-11-23T19:10:37.398Z,24.40
2018-11-23T19:13:06.052Z,25.33
2018-11-23T19:15:33.976Z,23.53
2018-11-23T19:18:01.917Z,22.03
2018-11-23T19:20:29.881Z,23.80
2018-11-23T19:22:57.788Z,22.23
2018-11-23T19:25:25.732Z,27.33
2018-11-23T19:27:53.656Z,24.27
2018-11-23T19:30:28.144Z,24.37
2018-11-23T19:32:50.921Z,23.57
2018-11-23T19:35:18.828Z,21.37
2018-11-23T19:37:46.756Z,25.90
2018-11-23T19:40:15.601Z,24.97
2018-11-23T19:42:44.151Z,26.80
2018-11-23T19:45:13.237Z,23.47
2018-11-23T19:47:41.176Z,22.30
2018-11-23T19:50:18.128Z,28.03
2018-11-23T19:52:46.253Z,26.63
2018-11-23T19:55:15.036Z,26.10
2018-11-23T19:57:42.984Z,25.73
2018-11-23T20:00:21.136Z,25.93
2018-11-23T20:02:49.344Z,29.50
2018-11-23T20:05:17.398Z,24.80
2018-11-23T20:07:46.366Z,25.63
2018-11-23T20:10:15.585Z,31.57
2018-11-23T20:12:44.356Z,27.03
2018-11-23T20:15:14.699Z,22.80
2018-11-23T20:17:42.677Z,24.10
2018-11-23T20:20:12.168Z,23.60
2018-11-23T20:22:40.110Z,22.33
2018-11-23T20:25:12.400Z,24.17
2018-11-23T20:27:40.358Z,22.53
2018-11-23T20:30:16.821Z,24.60
2018-11-23T20:32:44.829Z,23.53
2018-11-23T20:35:15.535Z,23.20
2018-11-23T20:37:43.494Z,23.50
2018-11-23T20:40:16.196Z,24.27
2018-11-23T20:42:44.253Z,22.17
2018-11-23T20:45:12.628Z,24.50
2018-11-23T20:47:40.634Z,24.03
2018-11-23T20:50:10.309Z,23.87
2018-11-23T20:52:38.369Z,25.73
2018-11-23T20:55:11.663Z,22.50
2018-11-23T20:57:39.660Z,25.93
2018-11-23T21:00:11.515Z,24.30
2018-11-23T21:02:39.505Z,26.90
2018-11-23T21:05:09.289Z,22.23
2018-11-23T21:07:37.490Z,25.93
2018-11-23T21:10:09.395Z,22.87
2018-11-23T21:12:37.329Z,23.70
2018-11-23T21:15:10.566Z,25.63
2018-11-23T21:17:38.529Z,23.40
2018-11-23T21:20:06.948Z,23.37
2018-11-23T21:22:36.150Z,21.50
2018-11-23T21:25:04.165Z,27.43
2018-11-23T21:27:32.123Z,27.63
2018-11-23T21:30:00.061Z,23.07
2018-11-23T21:32:28.020Z,25.23
2018-11-23T21:34:55.901Z,22.63
2018-11-23T21:37:23.809Z,24.70
2018-11-23T21:39:51.710Z,22.70
2018-11-23T21:42:19.681Z,24.13
2018-11-23T21:44:47.588Z,22.03
2018-11-23T21:47:15.521Z,22.67
2018-11-23T21:49:43.453Z,23.70
2018-11-23T21:52:11.367Z,26.63
2018-11-23T21:54:39.309Z,25.40
2018-11-23T21:57:07.217Z,23.63
2018-11-23T21:59:35.146Z,24.20
2018-11-23T22:02:07.059Z,25.97
2018-11-23T22:04:30.973Z,25.70
2018-11-23T22:06:58.888Z,21.27
2018-11-23T22:09:26.779Z,24.67
2018-11-23T22:11:54.697Z,24.20
2018-11-23T22:14:22.595Z,25.70
2018-11-23T22:16:50.498Z,23.83
2018-11-23T22:19:18.412Z,22.70
2018-11-23T22:21:46.276Z,23.00
2018-11-23T22:24:14.192Z,24.63
2018-11-23T22:26:42.077Z,24.83
2018-11-23T22:29:09.972Z,22.57
2018-11-23T22:31:37.878Z,24.73
2018-11-23T22:34:05.763Z,23.97
2018-11-23T22:36:33.655Z,22.50
2018-11-23T22:39:01.565Z,30.43
2018-11-23T22:41:29.439Z,21.00
2018-11-23T22:43:57.320Z,22.43
2018-11-23T22:46:25.253Z,22.37
2018-11-23T22:48:53.171Z,20.57
2018-11-23T22:51:21.097Z,22.63
2018-11-23T22:53:48.989Z,21.53
2018-11-23T22:56:16.882Z,23.93
2018-11-23T22:58:44.849Z,24.73
2018-11-23T23:01:12.744Z,23.03
2018-11-23T23:03:40.628Z,24.10
2018-11-23T23:06:08.583Z,24.07
2018-11-23T23:08:36.471Z,22.10
2018-11-23T23:11:04.485Z,27.27
2018-11-23T23:13:32.949Z,21.40
2018-11-23T23:16:00.896Z,22.97
2018-11-23T23:18:28.826Z,22.63
2018-11-23T23:20:56.742Z,23.17
2018-11-23T23:23:24.625Z,22.13
2018-11-23T23:25:52.503Z,23.03
2018-11-23T23:28:20.431Z,20.60
2018-11-23T23:30:48.330Z,22.70
2018-11-23T23:33:16.220Z,24.17
2018-11-23T23:35:44.120Z,22.93
2018-11-23T23:38:12.045Z,25.87
2018-11-23T23:40:39.926Z,25.17
2018-11-23T23:43:07.843Z,25.93
2018-11-23T23:45:35.747Z,26.90
2018-11-23T23:48:03.641Z,25.13
2018-11-23T23:50:31.569Z,24.90
2018-11-23T23:52:59.476Z,25.90
2018-11-23T23:55:27.400Z,26.13
2018-11-23T23:57:55.312Z,26.93
